| time (UTC) | temp F | wind direction | speed knots | gust knots | rain 1hr in | rain 24hr in | rain mn in | humidity % | barometer mb |
| 20260508001545 | 45 | 0 | 0.0 | 2.6 | 0.00 | 1.34 | 1.34 | 100 | 1002.3 |
| 20260508000044 | 45 | 179 | 0.0 | 5.2 | 0.00 | 1.34 | 1.34 | 100 | 1002.3 |
| 20260507234540 | 45 | 235 | 2.6 | 7.8 | 0.00 | 1.34 | 1.34 | 100 | 1002.3 |
| 20260507233038 | 45 | 179 | 2.6 | 7.8 | 0.00 | 1.34 | 1.34 | 100 | 1002.3 |
| 20260507231544 | 45 | 203 | 3.5 | 7.8 | 0.00 | 1.34 | 1.34 | 100 | 1002.0 |
| 20260507230044 | 45 | 172 | 5.2 | 9.6 | 0.00 | 1.34 | 1.34 | 100 | 1002.5 |
| 20260507224600 | 45 | 179 | 2.6 | 8.7 | 0.00 | 1.34 | 1.34 | 100 | 1002.7 |
| 20260507223050 | 46 | 168 | 3.5 | 8.7 | 0.00 | 1.34 | 1.34 | 100 | 1002.5 |
| 20260507221539 | 46 | 161 | 6.1 | 12.2 | 0.00 | 1.34 | 1.34 | 100 | 1002.8 |
| 20260507220038 | 47 | 160 | 5.2 | 13.9 | 0.00 | 1.34 | 1.34 | 100 | 1002.8 |
| 20260507214542 | 48 | 202 | 7.0 | 17.4 | 0.01 | 1.34 | 1.34 | 100 | 1003.0 |
| 20260507213043 | 48 | 167 | 5.2 | 13.0 | 0.01 | 1.34 | 1.34 | 100 | 1003.2 |
| 20260507211554 | 48 | 195 | 7.8 | 13.9 | 0.02 | 1.34 | 1.34 | 100 | 1002.9 |
| 20260507210041 | 48 | 201 | 6.1 | 15.6 | 0.07 | 1.34 | 1.34 | 100 | 1002.8 |
| 20260507204538 | 48 | 144 | 7.0 | 14.8 | 0.10 | 1.33 | 1.33 | 100 | 1002.3 |
| 20260507203044 | 48 | 124 | 7.0 | 12.2 | 0.19 | 1.33 | 1.33 | 100 | 1003.2 |
| 20260507201543 | 48 | 137 | 3.5 | 9.6 | 0.29 | 1.32 | 1.32 | 100 | 1003.7 |
| 20260507200047 | 48 | 151 | 3.5 | 13.0 | 0.40 | 1.27 | 1.27 | 100 | 1003.9 |
| 20260507194541 | 48 | 164 | 5.2 | 12.2 | 0.58 | 1.23 | 1.23 | 100 | 1004.2 |
| 20260507193039 | 47 | 147 | 6.1 | 12.2 | 0.64 | 1.14 | 1.14 | 100 | 1004.9 |
| 20260507191539 | 46 | 145 | 4.3 | 12.2 | 0.69 | 1.03 | 1.03 | 100 | 1005.4 |
| 20260507190045 | 45 | 207 | 6.1 | 17.4 | 0.69 | 0.86 | 0.86 | 100 | 1005.7 |
| 20260507184543 | 45 | 233 | 7.8 | 19.1 | 0.49 | 0.63 | 0.63 | 100 | 1005.6 |
| 20260507183040 | 45 | 157 | 8.7 | 17.4 | 0.37 | 0.49 | 0.49 | 100 | 1005.8 |
| 20260507181542 | 44 | 199 | 8.7 | 18.2 | 0.23 | 0.33 | 0.33 | 99 | 1006.2 |
| 20260507180045 | 46 | 145 | 6.1 | 19.1 | 0.07 | 0.17 | 0.17 | 100 | 1005.9 |
| 20260507174540 | 46 | 112 | 11.3 | 22.6 | 0.03 | 0.13 | 0.13 | 100 | 1005.4 |
| 20260507173044 | 46 | 184 | 8.7 | 20.9 | 0.02 | 0.12 | 0.12 | 100 | 1005.5 |
| 20260507171542 | 47 | 137 | 10.4 | 23.5 | 0.01 | 0.10 | 0.10 | 100 | 1006.1 |
| 20260507170043 | 46 | 162 | 10.4 | 20.9 | 0.01 | 0.10 | 0.10 | 100 | 1006.1 |
| 20260507164541 | 46 | 163 | 10.4 | 20.9 | 0.01 | 0.10 | 0.10 | 100 | 1006.6 |
| 20260507163039 | 45 | 200 | 8.7 | 22.6 | 0.01 | 0.10 | 0.10 | 100 | 1007.1 |
| 20260507161545 | 45 | 169 | 9.6 | 19.1 | 0.00 | 0.09 | 0.09 | 100 | 1007.5 |
| 20260507160044 | 45 | 210 | 6.1 | 19.1 | 0.00 | 0.09 | 0.09 | 100 | 1008.1 |
| 20260507154544 | 45 | 171 | 10.4 | 20.9 | 0.00 | 0.09 | 0.09 | 100 | 1008.3 |
| 20260507153042 | 45 | 147 | 10.4 | 20.9 | 0.00 | 0.09 | 0.09 | 99 | 1008.8 |
| 20260507151543 | 45 | 172 | 10.4 | 26.1 | 0.00 | 0.09 | 0.09 | 99 | 1009.2 |
| 20260507150038 | 46 | 179 | 12.2 | 23.5 | 0.00 | 0.09 | 0.09 | 99 | 1009.2 |
| 20260507144538 | 46 | 193 | 12.2 | 22.6 | 0.00 | 0.09 | 0.09 | 99 | 1009.5 |
| 20260507143044 | 46 | 174 | 13.0 | 21.7 | 0.00 | 0.09 | 0.09 | 100 | 1009.7 |
| 20260507141543 | 46 | 155 | 10.4 | 22.6 | 0.00 | 0.09 | 0.09 | 100 | 1010.0 |
| 20260507140056 | 46 | 184 | 13.9 | 22.6 | 0.00 | 0.09 | 0.09 | 100 | 1010.4 |
| 20260507134541 | 46 | 141 | 12.2 | 20.0 | 0.00 | 0.09 | 0.09 | 99 | 1010.7 |
| 20260507133040 | 45 | 166 | 11.3 | 21.7 | 0.00 | 0.09 | 0.09 | 99 | 1010.7 |
| 20260507131547 | 46 | 164 | 12.2 | 24.3 | 0.00 | 0.09 | 0.09 | 100 | 1011.3 |
| 20260507130043 | 46 | 172 | 13.0 | 24.3 | 0.01 | 0.09 | 0.09 | 99 | 1010.9 |
| 20260507124545 | 46 | 184 | 13.0 | 23.5 | 0.01 | 0.09 | 0.09 | 100 | 1010.9 |
| 20260507123043 | 46 | 151 | 13.0 | 25.2 | 0.01 | 0.09 | 0.09 | 99 | 1010.6 |
| 20260507121540 | 47 | 172 | 12.2 | 25.2 | 0.02 | 0.09 | 0.09 | 100 | 1011.2 |
| 20260507120039 | 46 | 179 | 11.3 | 23.5 | 0.01 | 0.08 | 0.08 | 99 | 1011.1 |
| 20260507114538 | 46 | 184 | 13.0 | 22.6 | 0.03 | 0.08 | 0.08 | 100 | 1011.5 |
| 20260507113044 | 45 | 122 | 13.9 | 24.3 | 0.04 | 0.08 | 0.08 | 99 | 1011.9 |
| 20260507111547 | 46 | 148 | 12.2 | 22.6 | 0.03 | 0.07 | 0.07 | 99 | 1012.0 |
| 20260507110049 | 47 | 145 | 9.6 | 26.1 | 0.03 | 0.07 | 0.07 | 100 | 1011.8 |
| 20260507104541 | 46 | 144 | 13.0 | 23.5 | 0.02 | 0.05 | 0.05 | 100 | 1011.7 |
| 20260507103039 | 45 | 179 | 10.4 | 20.9 | 0.01 | 0.04 | 0.04 | 100 | 1012.2 |
| 20260507101556 | 45 | 179 | 10.4 | 20.9 | 0.01 | 0.04 | 0.04 | 99 | 1012.6 |
| 20260507100045 | 44 | 155 | 11.3 | 20.9 | 0.00 | 0.03 | 0.03 | 99 | 1012.5 |
| 20260507094554 | 44 | 170 | 10.4 | 20.9 | 0.00 | 0.03 | 0.03 | 99 | 1012.5 |
| 20260507093042 | 45 | 165 | 8.7 | 19.1 | 0.00 | 0.03 | 0.03 | 99 | 1012.3 |
| 20260507091553 | 45 | 169 | 8.7 | 18.2 | 0.00 | 0.03 | 0.03 | 99 | 1012.1 |
| 20260507090051 | 45 | 172 | 7.0 | 14.8 | 0.00 | 0.03 | 0.03 | 99 | 1012.5 |
| 20260507084538 | 46 | 141 | 9.6 | 20.0 | 0.00 | 0.03 | 0.03 | 99 | 1013.0 |
| 20260507083041 | 46 | 169 | 11.3 | 20.0 | 0.00 | 0.03 | 0.03 | 99 | 1013.0 |
| 20260507081553 | 45 | 165 | 7.8 | 17.4 | 0.02 | 0.03 | 0.03 | 99 | 1012.9 |
| 20260507080042 | 45 | 205 | 5.2 | 13.9 | 0.02 | 0.03 | 0.03 | 99 | 1013.1 |
| 20260507074541 | 45 | 174 | 7.0 | 16.5 | 0.03 | 0.03 | 0.03 | 99 | 1013.3 |
| 20260507073054 | 45 | 160 | 11.3 | 20.9 | 0.03 | 0.03 | 0.03 | 99 | 1013.7 |
| 20260507071538 | 44 | 166 | 10.4 | 17.4 | 0.01 | 0.01 | 0.01 | 99 | 1013.9 |
| 20260507070058 | 45 | 150 | 7.8 | 13.9 | 0.01 | 0.01 | 0.01 | 99 | 1013.9 |
| 20260507064550 | 45 | 179 | 7.0 | 14.8 | 0.00 | 0.00 | 0.00 | 99 | 1014.5 |
| 20260507063044 | 46 | 149 | 7.8 | 16.5 | 0.00 | 0.00 | 0.00 | 99 | 1014.7 |
| 20260507061543 | 45 | 179 | 7.0 | 13.9 | 0.00 | 0.00 | 0.00 | 99 | 1014.6 |
| 20260507060043 | 45 | 215 | 7.8 | 14.8 | 0.00 | 0.00 | 0.00 | 99 | 1015.0 |
| 20260507054546 | 45 | 162 | 6.1 | 13.9 | 0.00 | 0.00 | 0.00 | 99 | 1015.1 |
| 20260507053042 | 45 | 147 | 5.2 | 10.4 | 0.00 | 0.00 | 0.00 | 99 | 1015.4 |
| 20260507051539 | 45 | 160 | 5.2 | 11.3 | 0.00 | 0.00 | 0.00 | 99 | 1015.8 |
| 20260507050037 | 45 | 179 | 4.3 | 9.6 | 0.00 | 0.00 | 0.00 | 99 | 1015.9 |
| 20260507044545 | 44 | 153 | 3.5 | 8.7 | 0.00 | 0.00 | 0.00 | 99 | 1016.4 |
| 20260507043041 | 44 | 194 | 2.6 | 7.0 | 0.00 | 0.00 | 0.00 | 99 | 1016.5 |
| 20260507041538 | 44 | 146 | 4.3 | 7.8 | 0.00 | 0.00 | 0.00 | 98 | 1016.9 |
| 20260507040049 | 44 | 170 | 2.6 | 7.8 | 0.00 | 0.00 | 0.00 | 98 | 1017.2 |
| 20260507034547 | 44 | 126 | 1.7 | 5.2 | 0.00 | 0.00 | 0.00 | 98 | 1017.5 |
| 20260507033044 | 44 | 151 | 2.6 | 4.3 | 0.00 | 0.00 | 0.00 | 98 | 1017.7 |
| 20260507031542 | 44 | 198 | 2.6 | 7.0 | 0.00 | 0.00 | 0.00 | 98 | 1017.9 |
| 20260507030041 | 44 | 176 | 3.5 | 8.7 | 0.00 | 0.00 | 0.00 | 98 | 1017.9 |
| 20260507024538 | 44 | 151 | 5.2 | 11.3 | 0.00 | 0.00 | 0.00 | 98 | 1018.1 |
| 20260507023037 | 44 | 172 | 4.3 | 9.6 | 0.00 | 0.00 | 0.00 | 98 | 1018.5 |
| 20260507021543 | 45 | 174 | 5.2 | 10.4 | 0.00 | 0.00 | 0.00 | 98 | 1018.6 |
| 20260507020040 | 45 | 174 | 5.2 | 11.3 | 0.00 | 0.00 | 0.00 | 98 | 1018.6 |
| 20260507014552 | 44 | 172 | 6.1 | 12.2 | 0.00 | 0.00 | 0.00 | 97 | 1018.6 |
| 20260507013038 | 45 | 179 | 8.7 | 14.8 | 0.00 | 0.00 | 0.00 | 97 | 1018.8 |
| 20260507011538 | 46 | 205 | 6.1 | 13.9 | 0.00 | 0.00 | 0.00 | 98 | 1018.9 |
| 20260507010038 | 46 | 175 | 7.0 | 13.9 | 0.00 | 0.00 | 0.00 | 97 | 1019.1 |
| 20260507004543 | 46 | 160 | 6.1 | 13.9 | 0.00 | 0.00 | 0.00 | 97 | 1019.2 |
| 20260507003039 | 46 | 173 | 7.0 | 13.9 | 0.00 | 0.00 | 0.00 | 97 | 1019.0 |